Time;durP1;ratioP1;P1;durP2;ratioP2;P2;SDS_P1;SDS_P2;PMS_P1;PMS_P2;Temp;Humidity;BMP_temperature;BMP_pressure;BME280_temperature;BME280_humidity;BME280_pressure;Samples;Min_cycle;Max_cycle;Signal;HPM_P1;HPM_P2
2023/08/16 00:00:42;;;;;;;;;;;15.50;99.90;;;;;;7326832;19;9206;-82
2023/08/16 00:03:12;;;;;;;;;;;15.50;99.90;;;;;;7326733;19;9470;-81
2023/08/16 00:05:44;;;;;;;;;;;15.40;99.90;;;;;;7327136;19;10156;-82
2023/08/16 00:08:13;;;;;;;;;;;15.40;99.90;;;;;;7330543;19;9309;-81
2023/08/16 00:10:45;;;;;;;;;;;15.40;99.90;;;;;;7325944;19;9188;-81
2023/08/16 00:13:13;;;;;;;;;;;15.50;99.90;;;;;;7325679;19;9281;-81
2023/08/16 00:15:42;;;;;;;;;;;15.50;99.90;;;;;;7326554;19;9193;-81
2023/08/16 00:18:11;;;;;;;;;;;15.40;99.90;;;;;;7324585;19;9667;-81
2023/08/16 00:20:40;;;;;;;;;;;15.40;99.90;;;;;;7326716;19;9221;-81
2023/08/16 00:23:12;;;;;;;;;;;15.30;99.90;;;;;;7326148;19;9415;-81
2023/08/16 00:25:44;;;;;;;;;;;15.20;99.90;;;;;;7326470;19;9561;-82
2023/08/16 00:28:13;;;;;;;;;;;15.10;99.90;;;;;;7326167;19;10170;-81
2023/08/16 00:30:42;;;;;;;;;;;15.20;99.90;;;;;;7326284;19;9396;-81
2023/08/16 00:33:11;;;;;;;;;;;15.10;99.90;;;;;;7326227;19;8944;-81
2023/08/16 00:35:40;;;;;;;;;;;15.10;99.90;;;;;;7326104;19;9204;-81
2023/08/16 00:38:09;;;;;;;;;;;15.10;99.90;;;;;;7324634;19;9185;-81
2023/08/16 00:40:37;;;;;;;;;;;15.10;99.90;;;;;;7324957;19;9205;-81
2023/08/16 00:43:09;;;;;;;;;;;15.10;99.90;;;;;;7325011;19;9582;-81
2023/08/16 00:45:39;;;;;;;;;;;15.00;99.90;;;;;;7325808;19;9425;-81
2023/08/16 00:48:09;;;;;;;;;;;15.00;99.90;;;;;;7325796;19;9251;-81
2023/08/16 00:50:38;;;;;;;;;;;15.10;99.90;;;;;;7325720;19;9191;-81
2023/08/16 00:53:08;;;;;;;;;;;15.10;99.90;;;;;;7325590;19;9477;-81
2023/08/16 00:55:38;;;;;;;;;;;15.20;99.90;;;;;;7325262;19;9197;-82
2023/08/16 00:58:10;;;;;;;;;;;15.20;99.90;;;;;;7323956;19;9222;-82
2023/08/16 01:00:39;;;;;;;;;;;15.20;99.90;;;;;;7323733;19;9131;-81
2023/08/16 01:03:08;;;;;;;;;;;15.20;99.90;;;;;;7325190;19;9245;-81
2023/08/16 01:05:38;;;;;;;;;;;15.30;99.90;;;;;;7324780;19;9233;-81
2023/08/16 01:08:07;;;;;;;;;;;15.30;99.90;;;;;;7328485;19;9129;-81
2023/08/16 01:10:46;;;;;;;;;;;15.40;99.90;;;;;;7324926;19;9254;-81
2023/08/16 01:13:26;;;;;;;;;;;15.40;99.90;;;;;;7324621;19;9208;-81
2023/08/16 01:15:59;;;;;;;;;;;15.40;99.90;;;;;;7324701;19;9197;-82
2023/08/16 01:18:31;;;;;;;;;;;15.50;99.90;;;;;;7323462;19;9157;-81
2023/08/16 01:21:00;;;;;;;;;;;15.50;99.90;;;;;;7324182;19;9190;-81
2023/08/16 01:23:41;;;;;;;;;;;15.50;99.90;;;;;;7323614;19;9110;-81
2023/08/16 01:26:27;;;;;;;;;;;15.40;99.90;;;;;;7324320;19;9003;-81
2023/08/16 01:28:58;;;;;;;;;;;15.30;99.90;;;;;;7324346;19;9248;-82
2023/08/16 01:31:28;;;;;;;;;;;15.30;99.90;;;;;;7324132;19;9153;-81
2023/08/16 01:33:57;;;;;;;;;;;15.20;99.90;;;;;;7324096;19;9233;-81
2023/08/16 01:36:26;;;;;;;;;;;15.20;99.90;;;;;;7324447;19;9128;-82
2023/08/16 01:38:56;;;;;;;;;;;15.10;99.90;;;;;;7322434;19;10453;-82
2023/08/16 01:41:34;;;;;;;;;;;15.10;99.90;;;;;;7323770;19;9229;-82
2023/08/16 01:44:04;;;;;;;;;;;15.00;99.90;;;;;;7322572;19;9629;-81
2023/08/16 01:46:36;;;;;;;;;;;15.00;99.90;;;;;;7325327;19;9166;-82
2023/08/16 01:49:06;;;;;;;;;;;15.00;99.90;;;;;;7324612;19;9197;-83
2023/08/16 01:51:35;;;;;;;;;;;15.00;99.90;;;;;;7323519;19;9185;-83
2023/08/16 01:54:04;;;;;;;;;;;14.90;99.90;;;;;;7323624;19;9509;-83
2023/08/16 01:56:36;;;;;;;;;;;14.90;99.90;;;;;;7323586;19;9133;-83
2023/08/16 01:59:05;;;;;;;;;;;14.70;99.90;;;;;;7322001;19;9178;-83
2023/08/16 02:01:34;;;;;;;;;;;14.50;99.90;;;;;;7323380;19;9197;-82
2023/08/16 02:04:03;;;;;;;;;;;14.40;99.90;;;;;;7323085;19;9201;-83
2023/08/16 02:06:32;;;;;;;;;;;14.40;99.90;;;;;;7323772;19;9288;-83
2023/08/16 02:09:01;;;;;;;;;;;14.30;99.90;;;;;;7322999;19;9225;-83
2023/08/16 02:11:32;;;;;;;;;;;14.10;99.90;;;;;;7322986;19;9309;-83
2023/08/16 02:14:03;;;;;;;;;;;13.90;99.90;;;;;;7322829;19;9299;-83
2023/08/16 02:16:32;;;;;;;;;;;13.90;99.90;;;;;;7322821;19;9129;-82
2023/08/16 02:19:01;;;;;;;;;;;13.90;99.90;;;;;;7320915;19;9225;-83
2023/08/16 02:21:30;;;;;;;;;;;13.90;99.90;;;;;;7322617;19;9568;-83
2023/08/16 02:23:59;;;;;;;;;;;14.00;99.90;;;;;;7322289;19;9040;-83
2023/08/16 02:26:28;;;;;;;;;;;14.00;99.90;;;;;;7322434;19;10643;-83
2023/08/16 02:28:57;;;;;;;;;;;14.00;99.90;;;;;;7322669;19;9184;-83
2023/08/16 02:31:28;;;;;;;;;;;14.00;99.90;;;;;;7322549;19;9279;-83
2023/08/16 02:33:57;;;;;;;;;;;14.10;99.90;;;;;;7322347;19;9203;-83
2023/08/16 02:36:26;;;;;;;;;;;14.00;99.90;;;;;;7329094;19;9249;-83
2023/08/16 02:38:55;;;;;;;;;;;14.00;99.90;;;;;;7327740;19;9117;-83
2023/08/16 02:41:24;;;;;;;;;;;14.00;99.90;;;;;;7329642;19;9197;-83
2023/08/16 02:43:53;;;;;;;;;;;14.00;99.90;;;;;;7326929;19;9584;-83
2023/08/16 02:46:22;;;;;;;;;;;14.00;99.90;;;;;;7329363;19;9289;-83
2023/08/16 02:48:53;;;;;;;;;;;14.00;99.90;;;;;;7329826;19;10211;-83
2023/08/16 02:51:22;;;;;;;;;;;14.10;99.90;;;;;;7329171;19;9160;-83
2023/08/16 02:53:51;;;;;;;;;;;14.10;99.90;;;;;;7329598;19;9460;-83
2023/08/16 02:56:20;;;;;;;;;;;14.00;99.90;;;;;;7328912;19;9296;-83
2023/08/16 02:58:49;;;;;;;;;;;14.00;99.90;;;;;;7326899;19;9479;-83
2023/08/16 03:01:18;;;;;;;;;;;14.10;99.90;;;;;;7329124;19;9360;-83
2023/08/16 03:03:48;;;;;;;;;;;14.10;99.90;;;;;;7328786;19;9510;-83
2023/08/16 03:06:20;;;;;;;;;;;14.20;99.90;;;;;;7330452;19;9499;-83
2023/08/16 03:08:49;;;;;;;;;;;14.10;99.90;;;;;;7328623;19;9210;-83
2023/08/16 03:11:18;;;;;;;;;;;14.10;99.90;;;;;;7328559;19;9169;-83
2023/08/16 03:13:47;;;;;;;;;;;14.10;99.90;;;;;;7328689;19;9259;-83
2023/08/16 03:16:16;;;;;;;;;;;14.10;99.90;;;;;;7328675;19;10165;-82
2023/08/16 03:18:45;;;;;;;;;;;14.00;99.90;;;;;;7326626;19;9465;-83
2023/08/16 03:21:14;;;;;;;;;;;14.10;99.90;;;;;;7328402;19;9177;-83
2023/08/16 03:23:46;;;;;;;;;;;14.20;99.90;;;;;;7328597;19;9197;-83
2023/08/16 03:26:15;;;;;;;;;;;14.20;99.90;;;;;;7328715;19;9223;-83
2023/08/16 03:28:46;;;;;;;;;;;14.30;99.90;;;;;;7328550;19;9281;-83
2023/08/16 03:31:15;;;;;;;;;;;14.40;99.90;;;;;;7328420;19;9547;-83
2023/08/16 03:33:44;;;;;;;;;;;14.40;99.90;;;;;;7328509;19;9136;-83
2023/08/16 03:36:13;;;;;;;;;;;14.40;99.90;;;;;;7328196;19;9549;-83
2023/08/16 03:38:45;;;;;;;;;;;14.40;99.90;;;;;;7326701;19;9205;-83
2023/08/16 03:41:17;;;;;;;;;;;14.40;99.90;;;;;;7325520;19;9481;-83
2023/08/16 03:43:46;;;;;;;;;;;14.40;99.90;;;;;;7326029;19;9181;-83
2023/08/16 03:46:15;;;;;;;;;;;14.50;99.90;;;;;;7327600;19;9235;-83
2023/08/16 03:48:47;;;;;;;;;;;14.40;99.90;;;;;;7327620;19;9182;-83
2023/08/16 03:51:16;;;;;;;;;;;14.40;99.90;;;;;;7327535;19;9179;-83
2023/08/16 03:53:48;;;;;;;;;;;14.40;99.90;;;;;;7327897;19;9272;-84
2023/08/16 03:56:17;;;;;;;;;;;14.40;99.90;;;;;;7328089;19;9270;-83
2023/08/16 03:58:46;;;;;;;;;;;14.40;99.90;;;;;;7326598;19;9272;-83
2023/08/16 04:01:15;;;;;;;;;;;14.40;99.90;;;;;;7327289;19;11110;-83
2023/08/16 04:03:47;;;;;;;;;;;14.40;99.90;;;;;;7327090;19;9190;-82
2023/08/16 04:06:19;;;;;;;;;;;14.40;99.90;;;;;;7328720;19;9413;-83
2023/08/16 04:08:51;;;;;;;;;;;14.50;99.90;;;;;;7327104;19;10405;-83
2023/08/16 04:11:21;;;;;;;;;;;14.50;99.90;;;;;;7326882;19;9209;-83
2023/08/16 04:13:50;;;;;;;;;;;14.50;99.90;;;;;;7326649;19;9173;-83
2023/08/16 04:16:19;;;;;;;;;;;14.50;99.90;;;;;;7326903;19;8944;-83
2023/08/16 04:18:50;;;;;;;;;;;14.50;99.90;;;;;;7325404;19;10363;-83
2023/08/16 04:21:19;;;;;;;;;;;14.50;99.90;;;;;;7326608;19;10199;-83
2023/08/16 04:23:50;;;;;;;;;;;14.50;99.90;;;;;;7326464;19;9199;-83
2023/08/16 04:26:21;;;;;;;;;;;14.50;99.90;;;;;;7326603;19;9547;-83
2023/08/16 04:28:50;;;;;;;;;;;14.50;99.90;;;;;;7326409;19;9426;-83
2023/08/16 04:31:19;;;;;;;;;;;14.50;99.90;;;;;;7326261;19;9482;-83
2023/08/16 04:33:49;;;;;;;;;;;14.50;99.90;;;;;;7326426;19;9220;-83
2023/08/16 04:36:19;;;;;;;;;;;14.50;99.90;;;;;;7325671;19;10314;-83
2023/08/16 04:38:50;;;;;;;;;;;14.50;99.90;;;;;;7325066;19;9200;-83
2023/08/16 04:41:19;;;;;;;;;;;14.50;99.90;;;;;;7324150;19;9289;-83
2023/08/16 04:43:48;;;;;;;;;;;14.50;99.90;;;;;;7325011;19;9208;-83
2023/08/16 04:46:17;;;;;;;;;;;14.50;99.90;;;;;;7325666;19;9492;-83
2023/08/16 04:48:46;;;;;;;;;;;14.60;99.90;;;;;;7325524;19;9200;-82
2023/08/16 04:51:15;;;;;;;;;;;14.60;99.90;;;;;;7325694;19;9453;-83
2023/08/16 04:53:45;;;;;;;;;;;14.60;99.90;;;;;;7325522;19;9204;-83
2023/08/16 04:56:17;;;;;;;;;;;14.60;99.90;;;;;;7326039;19;9271;-83
2023/08/16 04:58:46;;;;;;;;;;;14.60;99.90;;;;;;7323720;19;9165;-83
2023/08/16 05:01:15;;;;;;;;;;;14.70;99.90;;;;;;7325215;19;9682;-83
2023/08/16 05:03:50;;;;;;;;;;;14.70;99.90;;;;;;7323595;19;10656;-83
2023/08/16 05:06:20;;;;;;;;;;;14.70;99.90;;;;;;7327353;19;9156;-83
2023/08/16 05:08:49;;;;;;;;;;;14.70;99.90;;;;;;7325150;19;9185;-83
2023/08/16 05:11:20;;;;;;;;;;;14.80;99.90;;;;;;7325145;19;9236;-83
2023/08/16 05:13:50;;;;;;;;;;;14.80;99.90;;;;;;7325177;19;9217;-83
2023/08/16 05:16:19;;;;;;;;;;;14.80;99.90;;;;;;7324731;19;9472;-83
2023/08/16 05:18:48;;;;;;;;;;;14.80;99.90;;;;;;7324145;19;9481;-83
2023/08/16 05:21:17;;;;;;;;;;;14.80;99.90;;;;;;7324934;19;9295;-83
2023/08/16 05:23:46;;;;;;;;;;;14.80;99.90;;;;;;7324909;19;8997;-83
2023/08/16 05:26:15;;;;;;;;;;;14.80;99.90;;;;;;7324433;19;9450;-83
2023/08/16 05:28:46;;;;;;;;;;;14.90;99.90;;;;;;7324698;19;9338;-83
2023/08/16 05:31:16;;;;;;;;;;;15.00;99.90;;;;;;7324511;19;9327;-83
2023/08/16 05:33:45;;;;;;;;;;;15.00;99.90;;;;;;7324287;19;9181;-83
2023/08/16 05:36:14;;;;;;;;;;;15.10;99.90;;;;;;7324192;19;9238;-83
2023/08/16 05:38:43;;;;;;;;;;;15.30;99.90;;;;;;7323648;19;9063;-83
2023/08/16 05:41:12;;;;;;;;;;;15.30;99.90;;;;;;7322846;19;9279;-83
2023/08/16 05:43:41;;;;;;;;;;;15.50;99.90;;;;;;7322603;19;10672;-83
2023/08/16 05:46:12;;;;;;;;;;;15.60;99.90;;;;;;7324385;19;9209;-83
2023/08/16 05:48:41;;;;;;;;;;;15.70;99.90;;;;;;7324563;19;9351;-83
2023/08/16 05:51:10;;;;;;;;;;;15.70;99.90;;;;;;7323913;19;9216;-83
2023/08/16 05:53:39;;;;;;;;;;;15.50;99.90;;;;;;7323920;19;9320;-83
2023/08/16 05:56:08;;;;;;;;;;;15.40;99.90;;;;;;7323809;19;9473;-84
2023/08/16 05:58:37;;;;;;;;;;;15.40;99.90;;;;;;7323349;19;9206;-83
2023/08/16 06:01:06;;;;;;;;;;;15.50;99.90;;;;;;7323834;19;9495;-83
2023/08/16 06:03:38;;;;;;;;;;;15.50;99.90;;;;;;7323719;19;9468;-83
2023/08/16 06:06:07;;;;;;;;;;;15.60;99.90;;;;;;7325869;19;9113;-83
2023/08/16 06:08:39;;;;;;;;;;;15.60;99.90;;;;;;7323165;19;9110;-84
2023/08/16 06:11:08;;;;;;;;;;;15.70;99.90;;;;;;7322191;19;9152;-83
2023/08/16 06:13:37;;;;;;;;;;;15.70;99.90;;;;;;7323592;19;9492;-83
2023/08/16 06:16:07;;;;;;;;;;;15.80;99.90;;;;;;7323257;19;9198;-83
2023/08/16 06:18:39;;;;;;;;;;;15.90;99.90;;;;;;7323015;19;9230;-84
2023/08/16 06:21:08;;;;;;;;;;;15.90;99.90;;;;;;7323048;19;9480;-83
2023/08/16 06:23:38;;;;;;;;;;;16.00;99.90;;;;;;7322994;19;9690;-83
2023/08/16 06:26:07;;;;;;;;;;;16.10;99.90;;;;;;7322851;19;9479;-83
2023/08/16 06:28:35;;;;;;;;;;;16.20;99.90;;;;;;7322717;19;9062;-83
2023/08/16 06:31:04;;;;;;;;;;;16.30;99.90;;;;;;7322975;19;9250;-83
2023/08/16 06:33:33;;;;;;;;;;;16.40;99.90;;;;;;7321871;19;11172;-83
2023/08/16 06:36:05;;;;;;;;;;;16.50;99.90;;;;;;7322937;19;9173;-84
2023/08/16 06:38:34;;;;;;;;;;;16.50;99.90;;;;;;7322680;19;9244;-83
2023/08/16 06:41:03;;;;;;;;;;;16.60;99.90;;;;;;7320873;19;9213;-83
2023/08/16 06:43:32;;;;;;;;;;;16.80;99.90;;;;;;7321054;19;9201;-83
2023/08/16 06:46:01;;;;;;;;;;;16.90;99.90;;;;;;7322295;19;9169;-83
2023/08/16 06:48:31;;;;;;;;;;;17.00;99.90;;;;;;7322226;19;9240;-83
2023/08/16 06:51:00;;;;;;;;;;;17.10;99.90;;;;;;7322394;19;9228;-83
2023/08/16 06:53:51;;;;;;;;;;;17.10;99.90;;;;;;7320593;19;9186;-83
2023/08/16 06:56:20;;;;;;;;;;;17.20;99.90;;;;;;7321982;19;9281;-83
2023/08/16 06:58:49;;;;;;;;;;;17.30;99.90;;;;;;7322239;19;9000;-83
2023/08/16 07:01:18;;;;;;;;;;;17.40;99.90;;;;;;7322241;19;9189;-83
2023/08/16 07:03:48;;;;;;;;;;;17.40;99.90;;;;;;7321735;19;10468;-83
2023/08/16 07:06:17;;;;;;;;;;;17.40;99.90;;;;;;7323974;19;9237;-83
2023/08/16 07:08:46;;;;;;;;;;;17.50;99.90;;;;;;7321913;19;9445;-83
2023/08/16 07:11:17;;;;;;;;;;;17.70;99.90;;;;;;7321793;19;9342;-83
2023/08/16 07:13:47;;;;;;;;;;;17.80;99.90;;;;;;7321865;19;11188;-83
2023/08/16 07:16:17;;;;;;;;;;;17.90;99.90;;;;;;7322227;19;9221;-83
2023/08/16 07:18:46;;;;;;;;;;;17.90;99.90;;;;;;7321226;19;9320;-83
2023/08/16 07:21:15;;;;;;;;;;;18.00;99.90;;;;;;7324726;19;9261;-83
2023/08/16 07:23:44;;;;;;;;;;;18.00;99.90;;;;;;7328569;19;9514;-83
2023/08/16 07:26:13;;;;;;;;;;;18.10;99.90;;;;;;7328668;19;9220;-83
2023/08/16 07:28:45;;;;;;;;;;;18.30;99.90;;;;;;7328653;19;9184;-83
2023/08/16 07:31:14;;;;;;;;;;;18.40;99.90;;;;;;7326667;19;10614;-84
2023/08/16 07:33:43;;;;;;;;;;;18.60;99.90;;;;;;7328318;19;10220;-83
2023/08/16 07:36:13;;;;;;;;;;;18.90;99.90;;;;;;7328538;19;9172;-84
2023/08/16 07:38:42;;;;;;;;;;;19.40;99.90;;;;;;7328224;19;9526;-83
2023/08/16 07:41:11;;;;;;;;;;;19.80;99.90;;;;;;7325803;19;9181;-83
2023/08/16 07:43:40;;;;;;;;;;;20.10;99.90;;;;;;7326192;19;9302;-83
2023/08/16 07:46:11;;;;;;;;;;;20.20;99.90;;;;;;7327901;19;9260;-83
2023/08/16 07:48:40;;;;;;;;;;;20.40;99.90;;;;;;7327734;19;10906;-84
2023/08/16 07:51:10;;;;;;;;;;;20.80;99.90;;;;;;7328043;19;10162;-84
2023/08/16 07:53:39;;;;;;;;;;;21.00;99.90;;;;;;7327767;19;9177;-84
2023/08/16 07:56:08;;;;;;;;;;;21.10;99.90;;;;;;7327415;19;9170;-83
2023/08/16 07:58:37;;;;;;;;;;;21.40;99.90;;;;;;7327597;19;9211;-83
2023/08/16 08:01:06;;;;;;;;;;;21.50;99.90;;;;;;7325177;19;9349;-83
2023/08/16 08:03:37;;;;;;;;;;;21.60;99.90;;;;;;7327254;19;9530;-83
2023/08/16 08:06:09;;;;;;;;;;;21.30;99.90;;;;;;7329396;19;9467;-83
2023/08/16 08:08:38;;;;;;;;;;;20.90;99.90;;;;;;7327200;19;9005;-83
2023/08/16 08:11:09;;;;;;;;;;;20.50;99.90;;;;;;7327120;19;9180;-83
2023/08/16 08:13:39;;;;;;;;;;;20.20;99.90;;;;;;7327366;19;9364;-83
2023/08/16 08:16:09;;;;;;;;;;;19.90;99.90;;;;;;7328394;19;9221;-83
2023/08/16 08:18:42;;;;;;;;;;;20.00;99.90;;;;;;7328845;19;9454;-83
2023/08/16 08:21:11;;;;;;;;;;;20.40;99.90;;;;;;7325025;19;9234;-83
2023/08/16 08:23:39;;;;;;;;;;;20.70;99.90;;;;;;7326531;19;9190;-83
2023/08/16 08:26:10;;;;;;;;;;;20.80;99.90;;;;;;7326560;19;9193;-83
2023/08/16 08:28:39;;;;;;;;;;;20.90;99.90;;;;;;7326646;19;9229;-83
2023/08/16 08:31:08;;;;;;;;;;;20.90;99.90;;;;;;7326268;19;9173;-83
2023/08/16 08:33:37;;;;;;;;;;;20.90;99.90;;;;;;7324387;19;9215;-83
2023/08/16 08:36:09;;;;;;;;;;;20.80;99.90;;;;;;7326177;19;9263;-83
2023/08/16 08:38:38;;;;;;;;;;;20.70;99.90;;;;;;7326232;19;9655;-84
2023/08/16 08:41:08;;;;;;;;;;;20.60;99.90;;;;;;7324009;19;9236;-83
2023/08/16 08:43:39;;;;;;;;;;;20.60;99.90;;;;;;7324240;19;9499;-83
2023/08/16 08:46:09;;;;;;;;;;;20.50;99.90;;;;;;7325963;19;9198;-83
2023/08/16 08:48:39;;;;;;;;;;;20.50;99.90;;;;;;7325938;19;9567;-83
2023/08/16 08:51:10;;;;;;;;;;;20.50;99.90;;;;;;7326047;19;10733;-83
2023/08/16 08:53:39;;;;;;;;;;;20.50;99.90;;;;;;7325981;19;9300;-83
2023/08/16 08:56:13;;;;;;;;;;;20.40;99.90;;;;;;7326017;19;11122;-83
2023/08/16 08:58:45;;;;;;;;;;;20.40;99.90;;;;;;7325704;19;9170;-83
2023/08/16 09:01:16;;;;;;;;;;;20.40;99.90;;;;;;7323819;19;9179;-83
2023/08/16 09:03:48;;;;;;;;;;;20.50;99.90;;;;;;7325527;19;9201;-83
2023/08/16 09:06:20;;;;;;;;;;;20.50;99.90;;;;;;7328808;19;9116;-83
2023/08/16 09:08:51;;;;;;;;;;;20.60;99.90;;;;;;7325350;19;10370;-83
2023/08/16 09:11:21;;;;;;;;;;;20.70;99.90;;;;;;7325042;19;9217;-83
2023/08/16 09:13:50;;;;;;;;;;;20.90;99.90;;;;;;7325315;19;9541;-83
2023/08/16 09:16:20;;;;;;;;;;;20.90;99.90;;;;;;7324975;19;9206;-83
2023/08/16 09:18:51;;;;;;;;;;;20.90;99.90;;;;;;7325047;19;9202;-83
2023/08/16 09:21:24;;;;;;;;;;;21.10;99.90;;;;;;7323552;19;9193;-83
2023/08/16 09:23:59;;;;;;;;;;;21.20;99.90;;;;;;7324954;19;10048;-83
2023/08/16 09:26:29;;;;;;;;;;;21.30;99.90;;;;;;7325246;19;9173;-83
2023/08/16 09:28:59;;;;;;;;;;;21.40;99.90;;;;;;7325201;19;9474;-83
2023/08/16 09:31:31;;;;;;;;;;;21.40;99.90;;;;;;7325102;19;9174;-83
2023/08/16 09:34:01;;;;;;;;;;;21.50;99.90;;;;;;7324547;19;9316;-83
2023/08/16 09:36:33;;;;;;;;;;;21.50;99.90;;;;;;7324593;19;9130;-83
2023/08/16 09:39:04;;;;;;;;;;;21.50;99.90;;;;;;7324261;19;10413;-83
2023/08/16 09:41:34;;;;;;;;;;;21.70;99.90;;;;;;7322839;19;9197;-83
2023/08/16 09:44:08;;;;;;;;;;;21.70;99.90;;;;;;7322141;19;9201;-84
2023/08/16 09:46:38;;;;;;;;;;;21.70;99.90;;;;;;7323915;19;9225;-84
2023/08/16 09:49:09;;;;;;;;;;;21.80;99.90;;;;;;7323912;19;9289;-83
2023/08/16 09:51:43;;;;;;;;;;;22.00;99.90;;;;;;7323932;19;10689;-83
2023/08/16 09:54:14;;;;;;;;;;;22.10;99.60;;;;;;7323850;19;9532;-83
2023/08/16 09:56:44;;;;;;;;;;;22.20;99.10;;;;;;7323769;19;9211;-83
2023/08/16 09:59:14;;;;;;;;;;;22.30;99.70;;;;;;7323440;19;9487;-83
2023/08/16 10:01:44;;;;;;;;;;;22.30;96.00;;;;;;7321990;19;9222;-84
2023/08/16 10:04:14;;;;;;;;;;;22.50;97.90;;;;;;7323417;19;9477;-83
2023/08/16 10:06:46;;;;;;;;;;;22.50;95.90;;;;;;7327672;19;10009;-84
2023/08/16 10:09:16;;;;;;;;;;;22.40;97.30;;;;;;7323569;19;10149;-84
2023/08/16 10:11:47;;;;;;;;;;;22.10;94.60;;;;;;7323300;19;9177;-83
2023/08/16 10:14:17;;;;;;;;;;;21.80;94.90;;;;;;7323393;19;9162;-84
2023/08/16 10:16:55;;;;;;;;;;;21.70;96.20;;;;;;7323374;19;9335;-83
2023/08/16 10:19:26;;;;;;;;;;;21.90;97.60;;;;;;7323250;19;9177;-83
2023/08/16 10:22:00;;;;;;;;;;;22.20;97.00;;;;;;7321489;19;9217;-83
2023/08/16 10:24:36;;;;;;;;;;;22.40;96.30;;;;;;7323642;19;9230;-83
2023/08/16 10:27:07;;;;;;;;;;;22.50;94.10;;;;;;7323131;19;9264;-83
2023/08/16 10:29:41;;;;;;;;;;;22.70;95.10;;;;;;7322651;19;9205;-83
2023/08/16 10:32:16;;;;;;;;;;;22.70;89.60;;;;;;7322681;19;9240;-83
2023/08/16 10:34:48;;;;;;;;;;;22.60;90.70;;;;;;7322552;19;9303;-83
2023/08/16 10:37:20;;;;;;;;;;;22.60;91.10;;;;;;7322389;19;8997;-83
2023/08/16 10:39:52;;;;;;;;;;;22.70;91.20;;;;;;7321716;19;9169;-83
2023/08/16 10:42:21;;;;;;;;;;;22.70;90.10;;;;;;7322029;19;9213;-83
2023/08/16 10:44:53;;;;;;;;;;;22.60;90.60;;;;;;7322303;19;9316;-84
2023/08/16 10:47:32;;;;;;;;;;;22.80;91.20;;;;;;7322436;19;9301;-83
2023/08/16 10:50:03;;;;;;;;;;;22.80;89.70;;;;;;7322325;19;10380;-83
2023/08/16 10:52:35;;;;;;;;;;;22.90;90.80;;;;;;7322249;19;9248;-83
2023/08/16 10:55:04;;;;;;;;;;;23.00;90.70;;;;;;7322091;19;9339;-83
2023/08/16 10:57:34;;;;;;;;;;;22.70;87.30;;;;;;7329283;19;9498;-83
2023/08/16 11:00:09;;;;;;;;;;;22.50;88.10;;;;;;7329219;19;9501;-83
2023/08/16 11:02:39;;;;;;;;;;;22.50;90.10;;;;;;7329429;19;9014;-83
2023/08/16 11:05:18;;;;;;;;;;;22.70;91.30;;;;;;7330923;19;9035;-83
2023/08/16 11:07:50;;;;;;;;;;;22.80;90.10;;;;;;7329127;19;9225;-84
2023/08/16 11:10:19;;;;;;;;;;;22.80;89.40;;;;;;7329565;19;9189;-83
2023/08/16 11:12:48;;;;;;;;;;;23.00;88.60;;;;;;7328579;19;9163;-83
2023/08/16 11:15:20;;;;;;;;;;;23.00;89.10;;;;;;7328970;19;9197;-84
2023/08/16 11:17:50;;;;;;;;;;;23.00;86.90;;;;;;7329060;19;9374;-84
2023/08/16 11:20:20;;;;;;;;;;;23.00;86.60;;;;;;7328498;19;9220;-83
2023/08/16 11:22:52;;;;;;;;;;;23.20;89.50;;;;;;7328882;19;10679;-83
2023/08/16 11:25:21;;;;;;;;;;;23.30;87.70;;;;;;7328451;19;9208;-83
2023/08/16 11:27:51;;;;;;;;;;;23.30;85.50;;;;;;7328557;19;9169;-84
2023/08/16 11:30:21;;;;;;;;;;;23.20;86.10;;;;;;7328435;19;9441;-83
2023/08/16 11:32:49;;;;;;;;;;;23.10;85.80;;;;;;7328263;19;9453;-83
2023/08/16 11:35:18;;;;;;;;;;;22.90;87.40;;;;;;7328463;19;10291;-84
2023/08/16 11:37:47;;;;;;;;;;;22.70;87.30;;;;;;7328361;19;9215;-84
2023/08/16 11:40:22;;;;;;;;;;;22.70;87.90;;;;;;7326426;19;9209;-84
2023/08/16 11:42:51;;;;;;;;;;;22.80;89.40;;;;;;7326958;19;9501;-83
2023/08/16 11:45:21;;;;;;;;;;;22.90;87.50;;;;;;7327848;19;9686;-83
2023/08/16 11:47:54;;;;;;;;;;;23.00;87.00;;;;;;7326506;19;9208;-84
2023/08/16 11:50:23;;;;;;;;;;;22.90;85.30;;;;;;7327655;19;9202;-84
2023/08/16 11:52:59;;;;;;;;;;;22.90;87.10;;;;;;7327782;19;10257;-83
2023/08/16 11:55:33;;;;;;;;;;;23.10;89.00;;;;;;7326458;19;9193;-83
2023/08/16 11:58:06;;;;;;;;;;;23.20;87.40;;;;;;7327481;19;9618;-84
2023/08/16 12:00:36;;;;;;;;;;;23.40;88.50;;;;;;7326991;19;9196;-84
2023/08/16 12:03:06;;;;;;;;;;;23.60;88.80;;;;;;7327723;19;9213;-84
2023/08/16 12:05:38;;;;;;;;;;;23.70;86.80;;;;;;7329975;19;9160;-84
2023/08/16 12:08:09;;;;;;;;;;;23.60;81.80;;;;;;7324715;19;9178;-83
2023/08/16 12:10:41;;;;;;;;;;;23.60;81.20;;;;;;7327009;19;10383;-84
2023/08/16 12:13:14;;;;;;;;;;;23.50;81.50;;;;;;7327137;19;9257;-84
2023/08/16 12:15:45;;;;;;;;;;;23.40;82.10;;;;;;7326898;19;9330;-84
2023/08/16 12:18:14;;;;;;;;;;;23.50;82.90;;;;;;7327076;19;9169;-83
2023/08/16 12:20:49;;;;;;;;;;;23.50;82.10;;;;;;7326428;19;9080;-83
2023/08/16 12:23:18;;;;;;;;;;;23.60;83.20;;;;;;7326787;19;9178;-84
2023/08/16 12:25:50;;;;;;;;;;;23.70;81.50;;;;;;7326721;19;9529;-84
2023/08/16 12:28:19;;;;;;;;;;;23.80;80.70;;;;;;7326734;19;9177;-84
2023/08/16 12:30:48;;;;;;;;;;;23.80;78.60;;;;;;7327282;19;9214;-85
2023/08/16 12:33:18;;;;;;;;;;;23.80;80.00;;;;;;7326642;19;9271;-84
2023/08/16 12:35:47;;;;;;;;;;;23.80;78.80;;;;;;7326262;19;9160;-84
2023/08/16 12:38:18;;;;;;;;;;;23.90;79.10;;;;;;7326351;19;9320;-83
2023/08/16 12:40:50;;;;;;;;;;;23.90;78.30;;;;;;7324655;19;9264;-84
2023/08/16 12:43:20;;;;;;;;;;;23.90;77.90;;;;;;7324616;19;9162;-84
2023/08/16 12:45:49;;;;;;;;;;;23.90;76.00;;;;;;7325407;19;9525;-84
2023/08/16 12:48:18;;;;;;;;;;;23.90;78.00;;;;;;7325751;19;9461;-84
2023/08/16 12:50:47;;;;;;;;;;;23.80;75.90;;;;;;7325660;19;9174;-84
2023/08/16 12:53:15;;;;;;;;;;;23.80;75.70;;;;;;7325726;19;9203;-84
2023/08/16 12:55:44;;;;;;;;;;;23.70;75.70;;;;;;7325561;19;9529;-83
2023/08/16 12:58:16;;;;;;;;;;;23.70;76.10;;;;;;7325879;19;10662;-84
2023/08/16 13:00:45;;;;;;;;;;;23.70;76.40;;;;;;7325267;19;9589;-84
2023/08/16 13:03:14;;;;;;;;;;;23.80;76.40;;;;;;7326246;19;9288;-84
2023/08/16 13:05:43;;;;;;;;;;;23.90;77.00;;;;;;7325198;19;9257;-84
2023/08/16 13:08:13;;;;;;;;;;;24.00;75.80;;;;;;7325331;19;9171;-84
2023/08/16 13:10:41;;;;;;;;;;;23.90;74.70;;;;;;7325039;19;9322;-84
2023/08/16 13:13:10;;;;;;;;;;;23.90;75.50;;;;;;7325442;19;9197;-85
2023/08/16 13:15:42;;;;;;;;;;;24.00;76.50;;;;;;7325077;19;9646;-84
2023/08/16 13:18:11;;;;;;;;;;;24.00;75.30;;;;;;7324320;19;10345;-84
2023/08/16 13:20:40;;;;;;;;;;;24.10;76.40;;;;;;7325186;19;9556;-84
2023/08/16 13:23:10;;;;;;;;;;;24.00;75.20;;;;;;7323022;19;10614;-84
2023/08/16 13:25:39;;;;;;;;;;;23.90;74.80;;;;;;7325130;19;9073;-84
2023/08/16 13:28:08;;;;;;;;;;;24.00;75.70;;;;;;7324697;19;9396;-84
2023/08/16 13:30:42;;;;;;;;;;;24.10;75.60;;;;;;7324809;19;9275;-84
2023/08/16 13:33:12;;;;;;;;;;;24.20;74.10;;;;;;7324746;19;9221;-84
2023/08/16 13:35:45;;;;;;;;;;;24.20;72.60;;;;;;7322460;19;10912;-84
2023/08/16 13:38:14;;;;;;;;;;;24.00;70.50;;;;;;7324477;19;9185;-85
2023/08/16 13:40:40;;;;;;;;;;;24.00;71.40;;;;;;7322979;19;9244;-84
2023/08/16 13:43:10;;;;;;;;;;;23.90;71.50;;;;;;7322202;19;9103;-84
2023/08/16 13:45:44;;;;;;;;;;;24.00;72.10;;;;;;7323916;19;9215;-84
2023/08/16 13:48:13;;;;;;;;;;;24.00;71.70;;;;;;7323710;19;9157;-84
2023/08/16 13:50:42;;;;;;;;;;;24.00;71.40;;;;;;7323930;19;9430;-84
2023/08/16 13:53:11;;;;;;;;;;;23.90;69.70;;;;;;7323850;19;9173;-84
2023/08/16 13:55:40;;;;;;;;;;;23.90;70.40;;;;;;7323449;19;9630;-84
2023/08/16 13:58:10;;;;;;;;;;;23.90;71.30;;;;;;7323310;19;9472;-84
2023/08/16 14:00:42;;;;;;;;;;;24.00;72.30;;;;;;7323523;19;9549;-84
2023/08/16 14:03:12;;;;;;;;;;;24.00;71.90;;;;;;7322718;19;9114;-84
2023/08/16 14:05:41;;;;;;;;;;;24.00;73.10;;;;;;7323383;19;8944;-84
2023/08/16 14:08:10;;;;;;;;;;;24.00;75.30;;;;;;7323550;19;9531;-84
2023/08/16 14:10:40;;;;;;;;;;;23.90;75.30;;;;;;7323128;19;9201;-84
2023/08/16 14:13:12;;;;;;;;;;;23.80;76.00;;;;;;7323090;19;9189;-84
2023/08/16 14:15:44;;;;;;;;;;;23.60;75.70;;;;;;7323018;19;9188;-85
2023/08/16 14:18:13;;;;;;;;;;;23.60;77.30;;;;;;7323498;19;9384;-84
2023/08/16 14:20:42;;;;;;;;;;;23.70;79.20;;;;;;7323176;19;9449;-84
2023/08/16 14:23:13;;;;;;;;;;;23.80;78.00;;;;;;7321691;19;9157;-84
2023/08/16 14:25:42;;;;;;;;;;;23.90;78.80;;;;;;7322828;19;9522;-85
2023/08/16 14:28:11;;;;;;;;;;;23.80;78.80;;;;;;7323087;19;9219;-84
2023/08/16 14:30:41;;;;;;;;;;;23.90;78.80;;;;;;7324365;19;9481;-84
2023/08/16 14:33:14;;;;;;;;;;;23.70;78.90;;;;;;7331860;19;9289;-84
2023/08/16 14:35:44;;;;;;;;;;;23.80;80.40;;;;;;7339397;19;9181;-84
2023/08/16 14:38:15;;;;;;;;;;;23.80;81.40;;;;;;7333835;19;9197;-85
2023/08/16 14:40:44;;;;;;;;;;;23.80;81.10;;;;;;7327966;19;9177;-85
2023/08/16 14:43:13;;;;;;;;;;;23.80;80.50;;;;;;7326915;19;10145;-84
2023/08/16 14:45:44;;;;;;;;;;;23.70;81.10;;;;;;7329820;19;9510;-84